createdAt,value
2018-11-29T00:00:28.162Z,0
2018-11-29T00:01:28.162Z,0
2018-11-29T00:02:28.157Z,0
2018-11-29T00:03:28.407Z,0
2018-11-29T00:04:28.119Z,0
2018-11-29T00:05:28.119Z,0
2018-11-29T00:06:27.862Z,0
2018-11-29T00:07:28.361Z,0
2018-11-29T00:08:27.852Z,0
2018-11-29T00:09:28.097Z,0
2018-11-29T00:10:28.333Z,0
2018-11-29T00:11:27.816Z,0
2018-11-29T00:12:27.816Z,0
2018-11-29T00:13:28.057Z,0
2018-11-29T00:14:28.285Z,0
2018-11-29T00:15:28.029Z,0
2018-11-29T00:16:28.066Z,0
2018-11-29T00:17:28.007Z,0
2018-11-29T00:18:29.059Z,0
2018-11-29T00:19:27.751Z,0
2018-11-29T00:20:27.978Z,0
2018-11-29T00:21:27.974Z,0
2018-11-29T00:22:27.951Z,0
2018-11-29T00:23:27.707Z,0
2018-11-29T00:24:27.952Z,0
2018-11-29T00:25:27.687Z,0
2018-11-29T00:26:27.934Z,0
2018-11-29T00:27:28.168Z,0
2018-11-29T00:28:27.913Z,0
2018-11-29T00:29:27.641Z,0
2018-11-29T00:30:27.934Z,0
2018-11-29T00:31:27.883Z,0
2018-11-29T00:32:27.634Z,0
2018-11-29T00:33:27.623Z,0
2018-11-29T00:34:27.844Z,0
2018-11-29T00:35:27.589Z,0
2018-11-29T00:36:27.820Z,0
2018-11-29T00:37:27.811Z,0
2018-11-29T00:38:27.810Z,0
2018-11-29T00:39:27.800Z,0
2018-11-29T00:40:27.795Z,0
2018-11-29T00:41:27.800Z,0
2018-11-29T00:42:27.801Z,0
2018-11-29T00:43:28.022Z,0
2018-11-29T00:44:27.994Z,0
2018-11-29T00:45:27.564Z,0
2018-11-29T00:46:27.983Z,0
2018-11-29T00:47:27.991Z,0
2018-11-29T00:48:28.847Z,0
2018-11-29T00:49:27.982Z,0
2018-11-29T00:50:27.977Z,0
2018-11-29T00:51:27.935Z,0
2018-11-29T00:52:27.764Z,0
2018-11-29T00:53:27.190Z,0
2018-11-29T00:54:27.933Z,0
2018-11-29T00:55:27.430Z,0
2018-11-29T00:56:27.410Z,0
2018-11-29T00:57:27.884Z,0
2018-11-29T00:58:27.405Z,0
2018-11-29T00:59:27.870Z,0
2018-11-29T01:00:27.865Z,0
2018-11-29T01:01:27.611Z,0
2018-11-29T01:02:27.848Z,0
2018-11-29T01:03:27.834Z,0
2018-11-29T01:04:27.621Z,0
2018-11-29T01:05:27.615Z,0
2018-11-29T01:06:27.564Z,0
2018-11-29T01:07:27.837Z,0
2018-11-29T01:08:27.551Z,0
2018-11-29T01:09:27.562Z,0
2018-11-29T01:10:27.538Z,0
2018-11-29T01:11:27.291Z,0
2018-11-29T01:12:27.510Z,0
2018-11-29T01:13:27.500Z,0
2018-11-29T01:14:27.247Z,0
2018-11-29T01:15:27.515Z,0
2018-11-29T01:16:27.479Z,0
2018-11-29T01:17:27.269Z,0
2018-11-29T01:18:27.479Z,0
2018-11-29T01:19:28.409Z,0
2018-11-29T01:20:27.465Z,0
2018-11-29T01:21:27.193Z,0
2018-11-29T01:22:27.463Z,0
2018-11-29T01:23:27.660Z,0
2018-11-29T01:24:27.158Z,0
2018-11-29T01:25:27.404Z,0
2018-11-29T01:26:27.642Z,0
2018-11-29T01:27:27.380Z,0
2018-11-29T01:28:27.389Z,0
2018-11-29T01:29:27.379Z,0
2018-11-29T01:30:27.345Z,0
2018-11-29T01:31:27.580Z,0
2018-11-29T01:32:27.578Z,0
2018-11-29T01:33:27.568Z,0
2018-11-29T01:34:27.321Z,0
2018-11-29T01:35:27.313Z,0
2018-11-29T01:36:27.546Z,0
2018-11-29T01:37:27.300Z,0
2018-11-29T01:38:27.554Z,0
2018-11-29T01:39:27.525Z,0
2018-11-29T01:40:27.528Z,0
2018-11-29T01:41:27.277Z,0
2018-11-29T01:42:26.792Z,0
2018-11-29T01:43:27.248Z,0
2018-11-29T01:44:27.491Z,0
2018-11-29T01:45:27.227Z,0
2018-11-29T01:46:27.215Z,0
2018-11-29T01:47:27.449Z,0
2018-11-29T01:48:26.944Z,0
2018-11-29T01:49:30.630Z,0
2018-11-29T01:50:27.189Z,0
2018-11-29T01:51:27.439Z,0
2018-11-29T01:52:27.409Z,0
2018-11-29T01:53:26.913Z,0
2018-11-29T01:54:27.141Z,0
2018-11-29T01:55:27.389Z,0
2018-11-29T01:56:27.374Z,0
2018-11-29T01:57:27.364Z,0
2018-11-29T01:58:26.612Z,0
2018-11-29T01:59:27.350Z,0
2018-11-29T02:00:27.094Z,0
2018-11-29T02:01:27.093Z,0
2018-11-29T02:02:27.202Z,0
2018-11-29T02:03:27.334Z,0
2018-11-29T02:04:27.303Z,0
2018-11-29T02:05:27.307Z,0
2018-11-29T02:06:27.286Z,0
2018-11-29T02:07:27.027Z,0
2018-11-29T02:08:27.029Z,0
2018-11-29T02:09:27.357Z,0
2018-11-29T02:10:27.128Z,0
2018-11-29T02:11:26.999Z,0
2018-11-29T02:12:27.280Z,0
2018-11-29T02:13:27.248Z,0
2018-11-29T02:14:26.745Z,0
2018-11-29T02:15:27.238Z,0
2018-11-29T02:16:26.708Z,0
2018-11-29T02:17:27.196Z,0
2018-11-29T02:18:26.940Z,0
2018-11-29T02:19:26.928Z,0
2018-11-29T02:20:27.066Z,0
2018-11-29T02:21:26.919Z,0
2018-11-29T02:22:26.671Z,0
2018-11-29T02:23:26.897Z,0
2018-11-29T02:24:27.131Z,0
2018-11-29T02:25:26.879Z,0
2018-11-29T02:26:26.624Z,0
2018-11-29T02:27:27.093Z,0
2018-11-29T02:28:26.360Z,0
2018-11-29T02:29:26.840Z,0
2018-11-29T02:30:27.096Z,0
2018-11-29T02:31:27.102Z,0
2018-11-29T02:32:27.099Z,0
2018-11-29T02:33:27.061Z,0
2018-11-29T02:34:26.824Z,0
2018-11-29T02:35:27.075Z,0
2018-11-29T02:36:26.782Z,0
2018-11-29T02:37:26.767Z,0
2018-11-29T02:38:27.017Z,0
2018-11-29T02:39:27.080Z,0
2018-11-29T02:40:26.521Z,0
2018-11-29T02:41:26.747Z,0
2018-11-29T02:42:26.466Z,0
2018-11-29T02:43:26.721Z,0
2018-11-29T02:44:26.696Z,0
2018-11-29T02:45:26.686Z,0
2018-11-29T02:46:26.433Z,0
2018-11-29T02:47:26.683Z,0
2018-11-29T02:48:26.935Z,0
2018-11-29T02:49:26.683Z,0
2018-11-29T02:50:26.651Z,0
2018-11-29T02:51:26.396Z,0
2018-11-29T02:52:26.749Z,0
2018-11-29T02:53:26.644Z,0
2018-11-29T02:54:26.864Z,0
2018-11-29T02:55:26.673Z,0
2018-11-29T02:56:26.608Z,0
2018-11-29T02:57:26.589Z,0
2018-11-29T02:58:26.367Z,0
2018-11-29T02:59:26.570Z,0
2018-11-29T03:00:26.345Z,0
2018-11-29T03:01:26.553Z,0
2018-11-29T03:02:26.326Z,0
2018-11-29T03:03:26.556Z,0
2018-11-29T03:04:26.773Z,0
2018-11-29T03:05:26.777Z,0
2018-11-29T03:06:26.544Z,0
2018-11-29T03:07:26.256Z,0
2018-11-29T03:08:26.271Z,0
2018-11-29T03:09:26.755Z,0
2018-11-29T03:10:26.794Z,0
2018-11-29T03:11:26.699Z,0
2018-11-29T03:12:26.700Z,0
2018-11-29T03:13:25.981Z,0
2018-11-29T03:14:26.511Z,0
2018-11-29T03:15:26.452Z,0
2018-11-29T03:16:26.681Z,0
2018-11-29T03:17:26.433Z,0
2018-11-29T03:18:26.647Z,0
2018-11-29T03:19:26.154Z,0
2018-11-29T03:20:26.422Z,0
2018-11-29T03:21:26.410Z,0
2018-11-29T03:22:26.363Z,0
2018-11-29T03:23:25.875Z,0
2018-11-29T03:24:26.622Z,0
2018-11-29T03:25:26.096Z,0
2018-11-29T03:26:26.597Z,0
2018-11-29T03:27:26.098Z,0
2018-11-29T03:28:26.322Z,0
2018-11-29T03:29:26.075Z,0
2018-11-29T03:30:26.548Z,0
2018-11-29T03:31:26.584Z,0
2018-11-29T03:32:26.580Z,0
2018-11-29T03:33:26.544Z,0
2018-11-29T03:34:26.511Z,0
2018-11-29T03:35:26.246Z,0
2018-11-29T03:36:26.099Z,0
2018-11-29T03:37:26.215Z,0
2018-11-29T03:38:26.473Z,0
2018-11-29T03:39:25.971Z,0
2018-11-29T03:40:25.937Z,0
2018-11-29T03:41:26.452Z,0
2018-11-29T03:42:26.467Z,0
2018-11-29T03:43:26.436Z,0
2018-11-29T03:44:26.183Z,0
2018-11-29T03:45:25.922Z,0
2018-11-29T03:46:26.187Z,0
2018-11-29T03:47:26.418Z,0
2018-11-29T03:48:26.400Z,0
2018-11-29T03:49:26.160Z,0
2018-11-29T03:50:26.799Z,0
2018-11-29T03:51:26.104Z,0
2018-11-29T03:52:26.089Z,0
2018-11-29T03:53:26.365Z,0
2018-11-29T03:54:26.330Z,0
2018-11-29T03:55:25.822Z,0
2018-11-29T03:56:25.812Z,0
2018-11-29T03:57:26.293Z,0
2018-11-29T03:58:26.036Z,0
2018-11-29T03:59:26.276Z,0
2018-11-29T04:00:25.771Z,0
2018-11-29T04:01:26.269Z,0
2018-11-29T04:02:25.500Z,0
2018-11-29T04:03:25.743Z,0
2018-11-29T04:04:25.968Z,0
2018-11-29T04:05:25.960Z,0
2018-11-29T04:06:26.215Z,0
2018-11-29T04:07:25.971Z,0
2018-11-29T04:08:25.428Z,0
2018-11-29T04:09:25.930Z,0
2018-11-29T04:10:25.929Z,0
2018-11-29T04:11:25.650Z,0
2018-11-29T04:12:25.903Z,0
2018-11-29T04:13:25.646Z,0
2018-11-29T04:14:25.899Z,0
2018-11-29T04:15:25.619Z,0
2018-11-29T04:16:26.127Z,0
2018-11-29T04:17:25.612Z,0
2018-11-29T04:18:25.846Z,0
2018-11-29T04:19:25.854Z,0
2018-11-29T04:20:25.824Z,0
2018-11-29T04:21:25.801Z,0
2018-11-29T04:22:25.559Z,0
2018-11-29T04:23:25.549Z,0
2018-11-29T04:24:25.798Z,0
2018-11-29T04:25:25.522Z,0
2018-11-29T04:26:26.558Z,0
2018-11-29T04:27:26.067Z,0
2018-11-29T04:28:26.008Z,0
2018-11-29T04:29:25.983Z,0
2018-11-29T04:30:26.017Z,0
2018-11-29T04:31:25.716Z,0
2018-11-29T04:32:25.949Z,0
2018-11-29T04:33:25.441Z,0
2018-11-29T04:34:25.680Z,0
2018-11-29T04:35:25.937Z,0
2018-11-29T04:36:25.766Z,0
2018-11-29T04:37:25.665Z,0
2018-11-29T04:38:25.141Z,0
2018-11-29T04:39:25.636Z,0
2018-11-29T04:40:25.625Z,0
2018-11-29T04:41:25.619Z,0
2018-11-29T04:42:25.625Z,0
2018-11-29T04:43:25.890Z,0
2018-11-29T04:44:25.107Z,0
2018-11-29T04:45:25.858Z,0
2018-11-29T04:46:25.820Z,0
2018-11-29T04:47:25.801Z,0
2018-11-29T04:48:25.798Z,0
2018-11-29T04:49:25.930Z,0
2018-11-29T04:50:25.779Z,0
2018-11-29T04:51:27.429Z,0
2018-11-29T04:52:25.498Z,0
2018-11-29T04:53:25.503Z,0
2018-11-29T04:54:25.499Z,0
2018-11-29T04:55:25.472Z,0
2018-11-29T04:56:25.466Z,0
2018-11-29T04:57:25.465Z,0
2018-11-29T04:58:25.465Z,0
2018-11-29T04:59:25.690Z,0
2018-11-29T05:00:25.466Z,0
2018-11-29T05:01:25.212Z,0
2018-11-29T05:02:25.440Z,0
2018-11-29T05:03:25.180Z,0
2018-11-29T05:04:25.163Z,0
2018-11-29T05:05:25.385Z,0
2018-11-29T05:06:25.154Z,0
2018-11-29T05:07:25.615Z,0
2018-11-29T05:08:25.354Z,0
2018-11-29T05:09:25.636Z,0
2018-11-29T05:10:25.344Z,0
2018-11-29T05:11:25.354Z,0
2018-11-29T05:12:25.316Z,0
2018-11-29T05:13:25.296Z,0
2018-11-29T05:14:25.571Z,0
2018-11-29T05:15:25.277Z,0
2018-11-29T05:16:25.271Z,0
2018-11-29T05:17:25.292Z,0
2018-11-29T05:18:25.351Z,0
2018-11-29T05:19:25.488Z,0
2018-11-29T05:20:24.734Z,0
2018-11-29T05:21:25.460Z,0
2018-11-29T05:22:25.222Z,0
2018-11-29T05:23:25.456Z,0
2018-11-29T05:24:25.186Z,0
2018-11-29T05:25:25.430Z,0
2018-11-29T05:26:24.966Z,0
2018-11-29T05:27:25.155Z,0
2018-11-29T05:28:25.153Z,0
2018-11-29T05:29:25.150Z,0
2018-11-29T05:30:24.636Z,0
2018-11-29T05:31:25.119Z,0
2018-11-29T05:32:25.104Z,0
2018-11-29T05:33:24.874Z,0
2018-11-29T05:34:24.591Z,0
2018-11-29T05:35:24.591Z,0
2018-11-29T05:36:24.823Z,0
2018-11-29T05:37:24.560Z,0
2018-11-29T05:38:24.816Z,0
2018-11-29T05:39:24.801Z,0
2018-11-29T05:40:25.281Z,0
2018-11-29T05:41:24.763Z,0
2018-11-29T05:42:25.267Z,0
2018-11-29T05:43:24.990Z,0
2018-11-29T05:44:25.028Z,0
2018-11-29T05:45:24.967Z,0
2018-11-29T05:46:24.963Z,0
2018-11-29T05:47:24.951Z,0
2018-11-29T05:48:24.953Z,0
2018-11-29T05:49:24.697Z,0
2018-11-29T05:50:24.921Z,0
2018-11-29T05:51:24.906Z,0
2018-11-29T05:52:25.095Z,0
2018-11-29T05:53:24.394Z,0
2018-11-29T05:54:25.132Z,0
2018-11-29T05:55:24.620Z,0
2018-11-29T05:56:24.859Z,0
2018-11-29T05:57:24.840Z,0
2018-11-29T05:58:24.617Z,0
2018-11-29T05:59:24.852Z,0
2018-11-29T06:00:24.816Z,0
2018-11-29T06:01:25.053Z,0
2018-11-29T06:02:24.549Z,0
2018-11-29T06:03:24.294Z,0
2018-11-29T06:04:24.818Z,0
2018-11-29T06:05:24.789Z,0
2018-11-29T06:06:24.796Z,0
2018-11-29T06:07:24.764Z,0
2018-11-29T06:08:24.499Z,0
2018-11-29T06:09:24.994Z,0
2018-11-29T06:10:24.232Z,0
2018-11-29T06:11:24.699Z,0
2018-11-29T06:12:24.957Z,0
2018-11-29T06:13:24.926Z,0
2018-11-29T06:14:24.188Z,0
2018-11-29T06:15:24.436Z,0
2018-11-29T06:16:24.659Z,4
2018-11-29T06:17:24.632Z,4
2018-11-29T06:18:24.401Z,0
2018-11-29T06:19:24.900Z,0
2018-11-29T06:20:24.884Z,4
2018-11-29T06:21:24.384Z,4
2018-11-29T06:22:24.855Z,0
2018-11-29T06:23:24.577Z,4
2018-11-29T06:24:24.617Z,4
2018-11-29T06:25:24.814Z,8
2018-11-29T06:26:24.555Z,8
2018-11-29T06:27:24.291Z,8
2018-11-29T06:28:24.541Z,8
2018-11-29T06:29:24.556Z,12
2018-11-29T06:30:24.521Z,12
2018-11-29T06:31:24.750Z,16
2018-11-29T06:32:24.778Z,16
2018-11-29T06:33:24.480Z,20
2018-11-29T06:34:24.726Z,20
2018-11-29T06:35:24.719Z,24
2018-11-29T06:36:24.693Z,28
2018-11-29T06:37:25.266Z,32
2018-11-29T06:38:24.190Z,40
2018-11-29T06:39:24.201Z,40
2018-11-29T06:40:24.703Z,48
2018-11-29T06:41:24.405Z,60
2018-11-29T06:42:24.401Z,68
2018-11-29T06:43:24.677Z,80
2018-11-29T06:44:24.361Z,84
2018-11-29T06:45:24.611Z,92
2018-11-29T06:46:24.384Z,104
2018-11-29T06:47:24.584Z,112
2018-11-29T06:48:24.323Z,128
2018-11-29T06:49:23.829Z,148
2018-11-29T06:50:24.096Z,160
2018-11-29T06:51:24.304Z,176
2018-11-29T06:52:24.089Z,192
2018-11-29T06:53:24.531Z,212
2018-11-29T06:54:24.031Z,228
2018-11-29T06:55:24.500Z,252
2018-11-29T06:56:24.495Z,276
2018-11-29T06:57:24.285Z,300
2018-11-29T06:58:24.223Z,324
2018-11-29T06:59:24.240Z,348
2018-11-29T07:00:24.446Z,384
2018-11-29T07:01:24.444Z,416
2018-11-29T07:02:24.208Z,448
2018-11-29T07:03:28.713Z,476
2018-11-29T07:04:24.191Z,500
2018-11-29T07:05:24.140Z,528
2018-11-29T07:06:24.139Z,564
2018-11-29T07:07:24.376Z,604
2018-11-29T07:08:24.387Z,648
2018-11-29T07:09:24.911Z,688
2018-11-29T07:10:24.362Z,732
2018-11-29T07:11:24.089Z,780
2018-11-29T07:12:24.083Z,824
2018-11-29T07:13:24.364Z,864
2018-11-29T07:14:23.826Z,916
2018-11-29T07:15:24.061Z,964
2018-11-29T07:16:24.060Z,1008
2018-11-29T07:17:23.783Z,1052
2018-11-29T07:18:24.045Z,1104
2018-11-29T07:19:24.053Z,1168
2018-11-29T07:20:23.985Z,1224
2018-11-29T07:21:24.256Z,1264
2018-11-29T07:22:23.737Z,1288
2018-11-29T07:23:24.234Z,1300
2018-11-29T07:24:24.257Z,1308
2018-11-29T07:25:23.932Z,1292
2018-11-29T07:26:23.915Z,1272
2018-11-29T07:27:23.913Z,1292
2018-11-29T07:28:24.171Z,1348
2018-11-29T07:29:24.365Z,1420
2018-11-29T07:30:23.666Z,1492
2018-11-29T07:31:23.658Z,1548
2018-11-29T07:32:23.896Z,1596
2018-11-29T07:33:24.128Z,1644
2018-11-29T07:34:23.868Z,1684
2018-11-29T07:35:23.618Z,1716
2018-11-29T07:36:24.108Z,1744
2018-11-29T07:37:24.625Z,1768
2018-11-29T07:38:24.076Z,1804
2018-11-29T07:39:23.813Z,1848
2018-11-29T07:40:23.799Z,1896
2018-11-29T07:41:23.789Z,1932
2018-11-29T07:42:23.799Z,1980
2018-11-29T07:43:24.044Z,2024
2018-11-29T07:44:23.509Z,2080
2018-11-29T07:45:23.501Z,2144
2018-11-29T07:46:24.504Z,2228
2018-11-29T07:47:23.719Z,2300
2018-11-29T07:48:23.447Z,2348
2018-11-29T07:49:23.950Z,2420
2018-11-29T07:50:23.929Z,2536
2018-11-29T07:51:23.958Z,2628
2018-11-29T07:52:23.931Z,2692
2018-11-29T07:53:23.689Z,2772
2018-11-29T07:54:23.921Z,2872
2018-11-29T07:55:23.911Z,2968
2018-11-29T07:56:23.901Z,3016
2018-11-29T07:57:23.387Z,3096
2018-11-29T07:58:23.880Z,3228
2018-11-29T07:59:23.626Z,3336
2018-11-29T08:00:23.850Z,3404
2018-11-29T08:01:23.854Z,3488
2018-11-29T08:02:23.601Z,3584
2018-11-29T08:03:23.831Z,3688
2018-11-29T08:04:23.595Z,3756
2018-11-29T08:05:23.632Z,3800
2018-11-29T08:06:23.805Z,3828
2018-11-29T08:07:23.558Z,3848
2018-11-29T08:08:23.797Z,3912
2018-11-29T08:09:23.031Z,3968
2018-11-29T08:10:23.768Z,3992
2018-11-29T08:11:23.748Z,4012
2018-11-29T08:12:23.755Z,4032
2018-11-29T08:13:23.492Z,4084
2018-11-29T08:14:23.727Z,4136
2018-11-29T08:15:23.480Z,4184
2018-11-29T08:16:23.471Z,4180
2018-11-29T08:17:23.484Z,4156
2018-11-29T08:18:23.206Z,4156
2018-11-29T08:19:23.446Z,4152
2018-11-29T08:20:23.209Z,4184
2018-11-29T08:21:23.454Z,4208
2018-11-29T08:22:24.286Z,4264
2018-11-29T08:23:23.803Z,4348
2018-11-29T08:24:23.643Z,4452
2018-11-29T08:25:23.660Z,4568
2018-11-29T08:26:23.643Z,4648
2018-11-29T08:27:23.384Z,4672
2018-11-29T08:28:23.650Z,4652
2018-11-29T08:29:23.387Z,4660
2018-11-29T08:30:23.353Z,4628
2018-11-29T08:31:23.095Z,4608
2018-11-29T08:32:23.329Z,4524
2018-11-29T08:33:23.330Z,4632
2018-11-29T08:34:23.322Z,4732
2018-11-29T08:35:23.336Z,4840
2018-11-29T08:36:23.297Z,4864
2018-11-29T08:37:23.294Z,4896
2018-11-29T08:38:23.283Z,4852
2018-11-29T08:39:23.037Z,4784
2018-11-29T08:40:23.039Z,4732
2018-11-29T08:41:23.025Z,4544
2018-11-29T08:42:23.498Z,4464
2018-11-29T08:43:23.271Z,4328
2018-11-29T08:44:23.257Z,4336
2018-11-29T08:45:22.993Z,4404
2018-11-29T08:46:22.732Z,4472
2018-11-29T08:47:22.976Z,4468
2018-11-29T08:48:23.207Z,4508
2018-11-29T08:49:23.666Z,4600
2018-11-29T08:50:23.828Z,4684
2018-11-29T08:51:23.194Z,4756
2018-11-29T08:52:22.935Z,4888
2018-11-29T08:53:25.400Z,4912
2018-11-29T08:54:23.181Z,4924
2018-11-29T08:55:23.185Z,4948
2018-11-29T08:56:23.177Z,5040
2018-11-29T08:57:23.150Z,5128
2018-11-29T08:58:23.141Z,5136
2018-11-29T08:59:23.163Z,5148
2018-11-29T09:00:22.899Z,5248
2018-11-29T09:01:22.865Z,5244
2018-11-29T09:02:22.855Z,5268
2018-11-29T09:03:23.122Z,5256
2018-11-29T09:04:23.098Z,5212
2018-11-29T09:05:23.517Z,5056
2018-11-29T09:06:23.097Z,4936
2018-11-29T09:07:23.072Z,4940
2018-11-29T09:08:23.072Z,4952
2018-11-29T09:09:22.835Z,5108
2018-11-29T09:10:23.295Z,5184
2018-11-29T09:11:23.283Z,5344
2018-11-29T09:12:22.790Z,5372
2018-11-29T09:13:23.046Z,5256
2018-11-29T09:14:23.316Z,5164
2018-11-29T09:15:23.021Z,5112
2018-11-29T09:16:22.999Z,5232
2018-11-29T09:17:22.754Z,5216
2018-11-29T09:18:23.245Z,5204
2018-11-29T09:19:22.735Z,5180
2018-11-29T09:20:22.756Z,5308
2018-11-29T09:21:22.978Z,5468
2018-11-29T09:22:22.734Z,5536
2018-11-29T09:23:22.975Z,5580
2018-11-29T09:24:23.187Z,5564
2018-11-29T09:25:23.195Z,5416
2018-11-29T09:26:22.952Z,5320
2018-11-29T09:27:22.916Z,5232
2018-11-29T09:28:22.692Z,5452
2018-11-29T09:29:22.939Z,5408
2018-11-29T09:30:22.922Z,5424
2018-11-29T09:31:23.135Z,5356
2018-11-29T09:32:22.899Z,5360
2018-11-29T09:33:22.631Z,5360
2018-11-29T09:34:22.876Z,5380
2018-11-29T09:35:22.362Z,5376
2018-11-29T09:36:24.332Z,5420
2018-11-29T09:37:22.864Z,5436
2018-11-29T09:38:22.853Z,5408
2018-11-29T09:39:23.075Z,5464
2018-11-29T09:40:22.573Z,5536
2018-11-29T09:41:22.813Z,5604
2018-11-29T09:42:22.822Z,5632
2018-11-29T09:43:22.544Z,5608
2018-11-29T09:44:22.537Z,5676
2018-11-29T09:45:22.777Z,5632
2018-11-29T09:46:23.026Z,5664
2018-11-29T09:47:22.545Z,5660
2018-11-29T09:48:23.041Z,5660
2018-11-29T09:49:22.832Z,5720
2018-11-29T09:50:22.774Z,5732
2018-11-29T09:51:22.742Z,5648
2018-11-29T09:52:23.011Z,5392
2018-11-29T09:53:22.986Z,5308
2018-11-29T09:54:22.805Z,5128
2018-11-29T09:55:23.134Z,5004
2018-11-29T09:56:22.473Z,4896
2018-11-29T09:57:22.970Z,4864
2018-11-29T09:58:22.720Z,4888
2018-11-29T09:59:22.948Z,4948
2018-11-29T10:00:30.100Z,5020
2018-11-29T10:01:22.721Z,5072
2018-11-29T10:02:23.018Z,5124
2018-11-29T10:03:22.463Z,5172
2018-11-29T10:04:22.904Z,5216
2018-11-29T10:05:22.672Z,5244
2018-11-29T10:06:22.390Z,5268
2018-11-29T10:07:22.889Z,5284
2018-11-29T10:08:28.554Z,5292
2018-11-29T10:09:22.878Z,5312
2018-11-29T10:10:22.370Z,5328
2018-11-29T10:11:24.027Z,5312
2018-11-29T10:12:22.359Z,5296
2018-11-29T10:13:22.620Z,5312
2018-11-29T10:14:22.614Z,5340
2018-11-29T10:15:22.839Z,5364
2018-11-29T10:16:22.606Z,5380
2018-11-29T10:17:22.704Z,5372
2018-11-29T10:18:22.354Z,5344
2018-11-29T10:19:22.331Z,5312
2018-11-29T10:20:22.326Z,5288
2018-11-29T10:21:22.566Z,5280
2018-11-29T10:22:22.802Z,5268
2018-11-29T10:23:22.316Z,5256
2018-11-29T10:24:22.558Z,5260
2018-11-29T10:25:22.556Z,5280
2018-11-29T10:26:22.843Z,5300
2018-11-29T10:27:22.057Z,5320
2018-11-29T10:28:22.266Z,5332
2018-11-29T10:29:22.293Z,5356
2018-11-29T10:30:22.519Z,5388
2018-11-29T10:31:22.549Z,5388
2018-11-29T10:32:22.519Z,5388
2018-11-29T10:33:22.256Z,5388
2018-11-29T10:34:22.493Z,5600
2018-11-29T10:35:22.256Z,5516
2018-11-29T10:36:22.516Z,5540
2018-11-29T10:37:22.480Z,5728
2018-11-29T10:38:22.719Z,5600
2018-11-29T10:39:22.720Z,5424
2018-11-29T10:40:22.751Z,5424
2018-11-29T10:41:22.492Z,5612
2018-11-29T10:42:22.459Z,5688
2018-11-29T10:43:22.691Z,5712
2018-11-29T10:44:22.509Z,5792
2018-11-29T10:45:22.212Z,5924
2018-11-29T10:46:22.811Z,5772
2018-11-29T10:47:22.669Z,5660
2018-11-29T10:48:22.421Z,5796
2018-11-29T10:49:22.667Z,6008
2018-11-29T10:50:22.421Z,6076
2018-11-29T10:51:23.187Z,6128
2018-11-29T10:52:22.408Z,6040
2018-11-29T10:53:22.168Z,5956
2018-11-29T10:54:23.821Z,6084
2018-11-29T10:55:22.177Z,6268
2018-11-29T10:56:22.392Z,6344
2018-11-29T10:57:22.176Z,6352
2018-11-29T10:58:22.120Z,6256
2018-11-29T10:59:22.364Z,6096
2018-11-29T11:00:22.373Z,5992
2018-11-29T11:01:22.688Z,5976
2018-11-29T11:02:22.586Z,6024
2018-11-29T11:03:21.841Z,6076
2018-11-29T11:04:22.588Z,6256
2018-11-29T11:05:21.886Z,6276
2018-11-29T11:06:22.081Z,6124
2018-11-29T11:07:22.314Z,6032
2018-11-29T11:08:22.971Z,5984
2018-11-29T11:09:22.087Z,5964
2018-11-29T11:10:22.103Z,5872
2018-11-29T11:11:22.582Z,5804
2018-11-29T11:12:25.682Z,5788
2018-11-29T11:13:22.304Z,5832
2018-11-29T11:14:22.065Z,5952
2018-11-29T11:15:22.565Z,5880
2018-11-29T11:16:22.538Z,5952
2018-11-29T11:17:22.314Z,5884
2018-11-29T11:18:22.293Z,5840
2018-11-29T11:19:22.050Z,5788
2018-11-29T11:20:22.377Z,5632
2018-11-29T11:21:22.254Z,5376
2018-11-29T11:22:22.034Z,5256
2018-11-29T11:23:22.278Z,5176
2018-11-29T11:24:22.263Z,5124
2018-11-29T11:25:22.062Z,5076
2018-11-29T11:26:22.007Z,5044
2018-11-29T11:27:22.241Z,5004
2018-11-29T11:28:22.242Z,4960
2018-11-29T11:29:22.006Z,4904
2018-11-29T11:30:22.740Z,4848
2018-11-29T11:31:21.995Z,4788
2018-11-29T11:32:22.503Z,4736
2018-11-29T11:33:22.264Z,4692
2018-11-29T11:34:22.239Z,4660
2018-11-29T11:35:22.092Z,4648
2018-11-29T11:36:22.235Z,4640
2018-11-29T11:37:22.212Z,4636
2018-11-29T11:38:22.442Z,4628
2018-11-29T11:39:21.948Z,4604
2018-11-29T11:40:21.729Z,4592
2018-11-29T11:41:22.183Z,4596
2018-11-29T11:42:22.513Z,4592
2018-11-29T11:43:21.927Z,4604
2018-11-29T11:44:22.431Z,4616
2018-11-29T11:45:21.945Z,4608
2018-11-29T11:46:22.403Z,4604
2018-11-29T11:47:22.397Z,4612
2018-11-29T11:48:22.417Z,4632
2018-11-29T11:49:22.388Z,4656
2018-11-29T11:50:22.435Z,4676
2018-11-29T11:51:22.182Z,4684
2018-11-29T11:52:21.919Z,4676
2018-11-29T11:53:21.890Z,4668
2018-11-29T11:54:22.360Z,4660
2018-11-29T11:55:32.666Z,4640
2018-11-29T11:56:22.385Z,4620
2018-11-29T11:57:22.388Z,4588
2018-11-29T11:58:22.195Z,4552
2018-11-29T11:59:22.366Z,4500
2018-11-29T12:00:21.903Z,4468
2018-11-29T12:01:22.145Z,4428
2018-11-29T12:02:27.212Z,4408
2018-11-29T12:03:22.365Z,4388
2018-11-29T12:04:22.097Z,4372
2018-11-29T12:05:22.112Z,4352
2018-11-29T12:06:22.356Z,4336
2018-11-29T12:07:22.064Z,4320
2018-11-29T12:08:22.305Z,4312
2018-11-29T12:09:21.808Z,4276
2018-11-29T12:10:22.318Z,4260
2018-11-29T12:11:21.817Z,4248
2018-11-29T12:12:21.812Z,4232
2018-11-29T12:13:21.803Z,4216
2018-11-29T12:14:22.057Z,4192
2018-11-29T12:15:21.805Z,4168
2018-11-29T12:16:22.278Z,4136
2018-11-29T12:17:22.043Z,4104
2018-11-29T12:18:21.871Z,4064
2018-11-29T12:19:22.311Z,4024
2018-11-29T12:20:21.774Z,3988
2018-11-29T12:21:21.779Z,3952
2018-11-29T12:22:22.043Z,3916
2018-11-29T12:23:21.767Z,3872
2018-11-29T12:24:22.036Z,3828
2018-11-29T12:25:22.031Z,3776
2018-11-29T12:26:21.496Z,3716
2018-11-29T12:27:22.046Z,3668
2018-11-29T12:28:21.727Z,3616
2018-11-29T12:29:22.076Z,3568
2018-11-29T12:30:21.997Z,3520
2018-11-29T12:31:22.230Z,3476
2018-11-29T12:32:21.981Z,3440
2018-11-29T12:33:21.964Z,3408
2018-11-29T12:34:21.708Z,3396
2018-11-29T12:35:22.506Z,3380
2018-11-29T12:36:22.200Z,3372
2018-11-29T12:37:22.189Z,3364
2018-11-29T12:38:21.685Z,3356
2018-11-29T12:39:21.674Z,3340
2018-11-29T12:40:21.945Z,3316
2018-11-29T12:41:21.678Z,3288
2018-11-29T12:42:21.929Z,3264
2018-11-29T12:43:21.687Z,3244
2018-11-29T12:44:21.913Z,3224
2018-11-29T12:45:21.673Z,3200
2018-11-29T12:46:21.912Z,3180
2018-11-29T12:47:21.669Z,3156
2018-11-29T12:48:21.918Z,3136
2018-11-29T12:49:21.916Z,3120
2018-11-29T12:50:22.179Z,3112
2018-11-29T12:51:21.875Z,3108
2018-11-29T12:52:21.867Z,3112
2018-11-29T12:53:21.853Z,3128
2018-11-29T12:54:21.617Z,3164
2018-11-29T12:55:22.425Z,3196
2018-11-29T12:56:22.130Z,3204
2018-11-29T12:57:21.597Z,3236
2018-11-29T12:58:21.830Z,3268
2018-11-29T12:59:22.128Z,3296
2018-11-29T13:00:21.588Z,3320
2018-11-29T13:01:22.086Z,3340
2018-11-29T13:02:21.813Z,3356
2018-11-29T13:03:21.583Z,3380
2018-11-29T13:04:22.053Z,3360
2018-11-29T13:05:21.542Z,3356
2018-11-29T13:06:21.798Z,3336
2018-11-29T13:07:21.292Z,3320
2018-11-29T13:08:22.065Z,3308
2018-11-29T13:09:22.027Z,3296
2018-11-29T13:10:21.789Z,3288
2018-11-29T13:11:21.507Z,3272
2018-11-29T13:12:21.515Z,3268
2018-11-29T13:13:21.733Z,3244
2018-11-29T13:14:22.190Z,3212
2018-11-29T13:15:22.403Z,3180
2018-11-29T13:16:21.730Z,3148
2018-11-29T13:17:21.726Z,3132
2018-11-29T13:18:21.494Z,3124
2018-11-29T13:19:21.744Z,3116
2018-11-29T13:20:21.492Z,3112
2018-11-29T13:21:21.739Z,3104
2018-11-29T13:22:21.723Z,3084
2018-11-29T13:23:21.724Z,3072
2018-11-29T13:24:22.018Z,3056
2018-11-29T13:25:21.980Z,3044
2018-11-29T13:26:22.003Z,3032
2018-11-29T13:27:21.693Z,3012
2018-11-29T13:28:21.683Z,2996
2018-11-29T13:29:22.008Z,2968
2018-11-29T13:30:21.691Z,2944
2018-11-29T13:31:21.677Z,2924
2018-11-29T13:32:21.432Z,2892
2018-11-29T13:33:21.677Z,2860
2018-11-29T13:34:21.673Z,2836
2018-11-29T13:35:21.980Z,2812
2018-11-29T13:36:21.756Z,2776
2018-11-29T13:37:22.066Z,2740
2018-11-29T13:38:21.910Z,2716
2018-11-29T13:39:21.907Z,2688
2018-11-29T13:40:22.707Z,2660
2018-11-29T13:41:21.394Z,2632
2018-11-29T13:42:21.386Z,2600
2018-11-29T13:43:21.621Z,2560
2018-11-29T13:44:21.643Z,2516
2018-11-29T13:45:21.626Z,2460
2018-11-29T13:46:21.865Z,2408
2018-11-29T13:47:21.611Z,2352
2018-11-29T13:48:21.366Z,2300
2018-11-29T13:49:21.358Z,2252
2018-11-29T13:50:21.657Z,2204
2018-11-29T13:51:21.578Z,2160
2018-11-29T13:52:21.589Z,2120
2018-11-29T13:53:21.966Z,2088
2018-11-29T13:54:21.590Z,2056
2018-11-29T13:55:25.001Z,2020
2018-11-29T13:56:21.670Z,1988
2018-11-29T13:57:21.563Z,1944
2018-11-29T13:58:21.568Z,1900
2018-11-29T13:59:21.534Z,1840